Time;durP1;ratioP1;P1;durP2;ratioP2;P2;SDS_P1;SDS_P2;PMS_P1;PMS_P2;Temp;Humidity;BMP_temperature;BMP_pressure;BME280_temperature;BME280_humidity;BME280_pressure;Samples;Min_cycle;Max_cycle;Signal;HPM_P1;HPM_P2
2022/05/22 00:01:59;;;;;;;2.43;1.10;;;;;;;11.81;73.65;97808.47;6254066;28;20321;-45
2022/05/22 00:05:02;;;;;;;1.20;1.10;;;;;;;11.81;73.66;97811.97;6254436;28;20351;-43
2022/05/22 00:08:04;;;;;;;3.73;1.50;;;;;;;11.78;73.28;97806.09;6246106;28;20330;-45
2022/05/22 00:11:07;;;;;;;1.50;1.40;;;;;;;11.74;73.19;97796.72;6254822;28;20369;-44
2022/05/22 00:14:12;;;;;;;2.60;1.27;;;;;;;11.74;73.40;97792.25;6255273;28;20317;-43
2022/05/22 00:17:15;;;;;;;2.70;1.30;;;;;;;11.75;73.27;97804.56;6220285;28;20226;-43
2022/05/22 00:20:18;;;;;;;1.80;1.10;;;;;;;11.80;73.31;97791.78;6254065;28;20340;-47
2022/05/22 00:23:20;;;;;;;0.80;0.80;;;;;;;11.79;73.22;97798.03;6254456;28;20722;-44
2022/05/22 00:26:22;;;;;;;1.17;1.13;;;;;;;11.79;72.86;97799.81;6253330;28;20269;-45
2022/05/22 00:29:25;;;;;;;5.57;1.40;;;;;;;11.75;73.11;97795.78;6254039;28;20700;-44
2022/05/22 00:32:27;;;;;;;3.27;1.13;;;;;;;11.70;72.95;97790.84;6253032;28;20237;-44
2022/05/22 00:35:29;;;;;;;1.47;1.10;;;;;;;11.70;73.28;97800.56;6254096;28;20328;-43
2022/05/22 00:38:32;;;;;;;1.93;1.10;;;;;;;11.67;72.84;97791.09;6253114;28;20232;-45
2022/05/22 00:41:35;;;;;;;2.80;1.47;;;;;;;11.64;73.53;97790.50;6253241;28;20224;-46
2022/05/22 00:44:38;;;;;;;2.53;1.07;;;;;;;11.60;73.41;97789.06;6253796;28;20225;-43
2022/05/22 00:47:40;;;;;;;2.70;1.23;;;;;;;11.57;73.65;97778.78;6252647;28;20240;-43
2022/05/22 00:50:44;;;;;;;3.80;1.30;;;;;;;11.52;74.07;97783.59;6254008;28;20228;-45
2022/05/22 00:53:56;;;;;;;1.23;1.13;;;;;;;11.45;73.69;97780.63;6258477;28;20704;-44
2022/05/22 00:57:20;;;;;;;2.53;1.10;;;;;;;11.40;74.09;97774.84;6253727;28;20234;-46
2022/05/22 01:04:56;;;;;;;4.63;1.63;;;;;;;11.29;74.20;97778.38;6255092;28;20222;-44
2022/05/22 01:08:00;;;;;;;1.40;1.30;;;;;;;11.32;73.82;97772.00;6253084;28;20318;-43
2022/05/22 01:11:08;;;;;;;1.60;1.30;;;;;;;11.36;73.96;97784.03;6253869;28;20247;-44
2022/05/22 01:14:18;;;;;;;2.17;1.20;;;;;;;11.46;73.57;97780.50;6253765;28;20609;-42
2022/05/22 01:17:25;;;;;;;2.33;1.30;;;;;;;11.53;73.32;97777.34;6234797;28;20320;-47
2022/05/22 01:20:27;;;;;;;1.47;0.90;;;;;;;11.56;73.09;97777.94;6236619;28;20230;-42
2022/05/22 01:23:29;;;;;;;8.67;1.57;;;;;;;11.59;72.95;97779.47;6235179;28;20227;-45
2022/05/22 01:26:38;;;;;;;2.33;1.40;;;;;;;11.60;73.34;97776.69;6235352;28;20318;-44
2022/05/22 01:29:47;;;;;;;1.27;1.17;;;;;;;11.62;73.25;97779.22;6220736;28;20806;-43
2022/05/22 01:32:50;;;;;;;1.43;1.13;;;;;;;11.65;73.00;97784.25;6252118;28;20232;-44
2022/05/22 01:35:53;;;;;;;1.30;1.20;;;;;;;11.69;72.82;97788.31;6253070;28;20230;-45
2022/05/22 01:38:55;;;;;;;3.63;1.13;;;;;;;11.67;73.17;97792.91;6227964;28;20748;-45
2022/05/22 01:42:01;;;;;;;1.43;1.10;;;;;;;11.66;73.28;97783.31;6249858;28;20252;-44
2022/05/22 01:45:06;;;;;;;1.47;1.30;;;;;;;11.65;73.31;97787.75;6234720;28;20250;-46
2022/05/22 01:48:12;;;;;;;2.67;1.27;;;;;;;11.59;73.56;97779.47;6253694;28;20321;-46
2022/05/22 01:51:18;;;;;;;1.70;1.17;;;;;;;11.52;73.84;97779.13;6239392;28;20244;-46
2022/05/22 01:54:20;;;;;;;1.73;1.07;;;;;;;11.44;73.74;97777.13;6252513;28;20219;-45
2022/05/22 01:57:22;;;;;;;1.20;1.10;;;;;;;11.42;73.63;97783.50;6234821;28;20736;-45
2022/05/22 02:00:26;;;;;;;2.03;1.00;;;;;;;11.36;73.38;97782.22;6238157;28;20266;-44
2022/05/22 02:03:31;;;;;;;1.93;1.40;;;;;;;11.32;73.48;97787.88;6223715;28;20229;-43
2022/05/22 02:06:33;;;;;;;1.87;1.10;;;;;;;11.28;74.03;97783.81;6238312;28;20606;-45
2022/05/22 02:09:43;;;;;;;1.10;1.00;;;;;;;11.27;73.64;97784.78;6240046;28;20238;-44
2022/05/22 02:12:46;;;;;;;2.07;1.10;;;;;;;11.23;74.21;97770.13;6239465;28;20255;-46
2022/05/22 02:15:49;;;;;;;3.37;1.03;;;;;;;11.20;74.56;97778.28;6257691;28;20587;-43
2022/05/22 02:18:51;;;;;;;1.37;1.17;;;;;;;11.13;74.11;97783.25;6238901;28;20237;-44
2022/05/22 02:21:54;;;;;;;1.83;1.30;;;;;;;11.06;73.99;97785.53;6251057;28;20838;-43
2022/05/22 02:25:00;;;;;;;1.60;1.20;;;;;;;10.99;74.53;97784.34;6222325;28;20234;-45
2022/05/22 02:28:05;;;;;;;1.10;1.00;;;;;;;10.94;74.23;97781.25;6240039;28;20278;-44
2022/05/22 02:31:08;;;;;;;1.93;1.30;;;;;;;10.86;74.17;97783.66;6239918;28;20715;-45
2022/05/22 02:34:10;;;;;;;1.90;1.20;;;;;;;10.82;74.51;97778.72;6257382;28;20267;-44
2022/05/22 02:37:12;;;;;;;1.50;1.13;;;;;;;10.76;74.70;97782.72;6256248;28;20754;-45
2022/05/22 02:40:16;;;;;;;1.17;1.07;;;;;;;10.72;74.54;97776.00;6257014;28;20247;-45
2022/05/22 02:43:26;;;;;;;1.50;1.40;;;;;;;10.66;75.45;97774.69;6238287;28;20262;-49
2022/05/22 02:46:31;;;;;;;3.07;1.20;;;;;;;10.61;75.45;97774.19;6256435;28;20253;-43
2022/05/22 02:49:34;;;;;;;1.33;1.13;;;;;;;10.55;75.27;97779.13;6215283;28;20739;-45
2022/05/22 02:52:36;;;;;;;2.13;1.67;;;;;;;10.49;75.46;97775.16;6239447;28;20615;-44
2022/05/22 02:55:40;;;;;;;2.83;1.77;;;;;;;10.43;76.09;97775.66;6237927;28;20476;-45
2022/05/22 02:58:42;;;;;;;1.40;1.17;;;;;;;10.40;75.81;97775.03;6238308;28;20278;-45
2022/05/22 03:01:50;;;;;;;1.30;1.20;;;;;;;10.39;76.47;97768.91;6237865;28;20228;-44
2022/05/22 03:04:52;;;;;;;1.33;1.23;;;;;;;10.37;76.42;97762.09;6256037;28;20259;-45
2022/05/22 03:07:55;;;;;;;1.47;1.37;;;;;;;10.34;76.67;97758.75;6256202;28;20239;-45
2022/05/22 03:11:06;;;;;;;1.93;1.33;;;;;;;10.32;76.79;97759.81;6229743;28;20319;-46
2022/05/22 03:14:10;;;;;;;2.00;1.20;;;;;;;10.28;76.68;97758.38;6256144;28;20229;-45
2022/05/22 03:17:12;;;;;;;2.43;1.40;;;;;;;10.27;76.29;97749.63;6237882;28;20672;-45
2022/05/22 03:20:34;;;;;;;2.03;1.10;;;;;;;10.26;76.76;97747.09;6255464;28;20239;-47
2022/05/22 03:23:37;;;;;;;1.30;1.20;;;;;;;10.24;76.59;97752.50;6237164;28;20710;-43
2022/05/22 03:26:39;;;;;;;2.50;1.30;;;;;;;10.21;76.64;97750.09;6237857;28;20235;-45
2022/05/22 03:29:43;;;;;;;1.60;1.50;;;;;;;10.22;76.88;97749.13;6238013;28;20232;-44
2022/05/22 03:32:45;;;;;;;1.87;1.17;;;;;;;10.19;77.35;97759.06;6238359;28;20242;-47
2022/05/22 03:35:47;;;;;;;3.70;1.53;;;;;;;10.18;77.42;97752.16;6255231;28;20227;-44
2022/05/22 03:38:49;;;;;;;2.40;1.30;;;;;;;10.18;77.29;97760.88;6237441;28;20580;-44
2022/05/22 03:41:52;;;;;;;1.30;1.20;;;;;;;10.14;76.76;97756.78;6254150;28;20232;-43
2022/05/22 03:44:57;;;;;;;1.23;1.10;;;;;;;10.16;76.82;97761.94;6237565;28;20244;-46
2022/05/22 03:47:59;;;;;;;1.10;1.00;;;;;;;10.16;77.16;97765.41;6206897;28;20342;-46
2022/05/22 03:51:01;;;;;;;1.67;1.40;;;;;;;10.18;77.19;97765.34;6236828;28;20231;-46
2022/05/22 03:54:04;;;;;;;1.30;1.20;;;;;;;10.18;77.25;97771.41;6229021;28;20639;-47
2022/05/22 03:57:11;;;;;;;3.83;1.13;;;;;;;10.24;76.70;97770.13;6238055;28;20591;-43
2022/05/22 04:00:17;;;;;;;1.47;1.37;;;;;;;10.26;76.76;97774.31;6236591;28;20216;-47
2022/05/22 04:03:23;;;;;;;1.83;1.10;;;;;;;10.28;76.63;97771.56;6229468;28;20238;-44
2022/05/22 04:06:29;;;;;;;1.50;1.30;;;;;;;10.28;76.63;97782.13;6235484;28;20594;-43
2022/05/22 04:09:32;;;;;;;1.40;1.30;;;;;;;10.29;77.17;97776.72;6253900;28;20270;-43
2022/05/22 04:12:47;;;;;;;1.40;1.30;;;;;;;10.32;77.33;97784.38;6235433;28;20235;-43
2022/05/22 04:15:51;;;;;;;4.03;1.20;;;;;;;10.32;77.23;97778.28;6236280;28;20232;-44
2022/05/22 04:18:54;;;;;;;2.40;1.40;;;;;;;10.35;76.98;97785.97;6237063;28;20796;-46
2022/05/22 04:21:56;;;;;;;2.97;1.40;;;;;;;10.35;77.45;97781.53;6252130;28;20239;-43
2022/05/22 04:25:12;;;;;;;2.17;1.20;;;;;;;10.32;77.42;97784.38;6237113;28;20646;-43
2022/05/22 04:28:14;;;;;;;1.87;1.40;;;;;;;10.33;77.88;97783.44;6253194;28;20280;-45
2022/05/22 04:31:20;;;;;;;2.10;1.30;;;;;;;10.34;77.88;97790.41;6227471;28;20308;-44
2022/05/22 04:34:40;;;;;;;1.83;1.53;;;;;;;10.40;77.54;97791.69;6229685;28;20240;-43
2022/05/22 04:37:46;;;;;;;3.17;1.40;;;;;;;10.46;77.32;97791.25;6213244;28;20243;-44
2022/05/22 04:41:00;;;;;;;3.27;1.50;;;;;;;10.50;77.89;97790.03;6212555;28;20351;-45
2022/05/22 04:44:02;;;;;;;3.70;1.10;;;;;;;10.51;77.92;97786.44;6252522;28;20255;-44
2022/05/22 04:47:05;;;;;;;3.30;1.37;;;;;;;10.56;77.65;97792.19;6251175;28;20227;-44
2022/05/22 04:50:08;;;;;;;1.50;1.30;;;;;;;10.62;77.63;97788.22;6259659;28;20578;-44
2022/05/22 04:53:30;;;;;;;1.20;1.10;;;;;;;10.62;77.83;97785.59;6259866;28;20248;-45
2022/05/22 04:56:42;;;;;;;1.20;1.10;;;;;;;10.65;78.27;97785.34;6258272;28;20764;-47
2022/05/22 04:59:54;;;;;;;2.13;1.53;;;;;;;10.63;78.58;97785.47;6265618;28;20223;-45
2022/05/22 05:02:56;;;;;;;2.73;1.50;;;;;;;10.67;78.89;97780.81;6260050;28;20598;-43
2022/05/22 05:05:59;;;;;;;1.40;1.30;;;;;;;10.78;78.31;97785.25;6259062;28;20235;-44
2022/05/22 05:09:04;;;;;;;1.50;1.20;;;;;;;10.92;78.28;97780.53;6279561;28;20352;-43
2022/05/22 05:12:09;;;;;;;3.50;1.53;;;;;;;11.08;78.54;97785.41;6276811;28;20243;-44
2022/05/22 05:15:15;;;;;;;2.57;1.60;;;;;;;11.18;78.46;97781.06;6277610;28;20208;-44
2022/05/22 05:18:24;;;;;;;2.27;1.33;;;;;;;11.28;78.30;97771.41;6259844;28;20365;-44
2022/05/22 05:21:27;;;;;;;2.73;1.30;;;;;;;11.43;78.36;97770.16;6258823;28;20822;-46
2022/05/22 05:24:33;;;;;;;5.13;1.50;;;;;;;11.55;78.43;97762.19;6259230;28;20228;-44
2022/05/22 05:27:36;;;;;;;1.73;1.50;;;;;;;11.70;77.93;97767.03;6277454;28;20302;-45
2022/05/22 05:30:48;;;;;;;1.53;1.40;;;;;;;11.82;77.93;97767.84;6260006;28;20236;-46
2022/05/22 05:33:50;;;;;;;2.67;1.63;;;;;;;11.89;77.49;97770.81;6257955;28;20247;-49
2022/05/22 05:37:04;;;;;;;2.00;1.70;;;;;;;11.95;77.39;97762.38;6245853;28;20804;-44
2022/05/22 05:40:18;;;;;;;2.23;1.47;;;;;;;12.02;77.01;97772.31;6247382;28;20240;-44
2022/05/22 05:43:21;;;;;;;2.57;1.57;;;;;;;12.09;76.75;97772.59;6262871;28;20230;-44
2022/05/22 05:46:24;;;;;;;1.93;1.40;;;;;;;12.19;76.78;97763.75;6254713;28;20243;-45
2022/05/22 05:49:26;;;;;;;3.33;1.70;;;;;;;12.29;76.56;97753.22;6259800;28;20288;-45
2022/05/22 05:52:49;;;;;;;2.10;1.90;;;;;;;12.37;76.48;97763.19;6284373;28;20240;-44
2022/05/22 05:56:15;;;;;;;3.27;1.83;;;;;;;12.41;76.05;97772.50;6250583;28;20337;-44
2022/05/22 05:59:38;;;;;;;3.23;1.70;;;;;;;12.48;75.70;97777.13;6265392;28;20571;-46
2022/05/22 06:02:48;;;;;;;2.17;1.67;;;;;;;12.60;75.29;97777.88;6263404;28;20687;-45
2022/05/22 06:05:50;;;;;;;3.63;1.43;;;;;;;12.76;75.24;97769.47;6255537;28;20372;-47
2022/05/22 06:09:01;;;;;;;2.97;1.57;;;;;;;12.94;74.31;97771.31;6271362;28;20350;-42
2022/05/22 06:12:19;;;;;;;3.30;1.70;;;;;;;13.12;73.76;97768.84;6269022;28;20732;-43
2022/05/22 06:15:32;;;;;;;2.93;1.90;;;;;;;13.23;73.60;97762.63;6252628;28;20595;-43
2022/05/22 06:18:34;;;;;;;2.27;1.87;;;;;;;13.33;73.17;97755.50;6242561;28;20228;-43
2022/05/22 06:21:43;;;;;;;3.17;1.77;;;;;;;13.40;73.18;97764.59;6247116;28;20226;-44
2022/05/22 06:24:47;;;;;;;3.80;1.50;;;;;;;13.52;72.29;97763.47;6253459;28;20231;-43
2022/05/22 06:28:00;;;;;;;2.40;1.50;;;;;;;13.63;71.87;97760.69;6289234;28;20264;-46
2022/05/22 06:31:21;;;;;;;2.20;1.33;;;;;;;13.76;71.50;97762.22;6279751;28;20325;-46
2022/05/22 06:34:34;;;;;;;1.63;1.53;;;;;;;13.96;71.58;97759.41;6260102;28;20727;-44
2022/05/22 06:37:49;;;;;;;3.13;1.83;;;;;;;14.14;70.36;97750.69;6260740;28;20230;-43
2022/05/22 06:41:11;;;;;;;2.20;1.87;;;;;;;14.40;69.44;97741.13;6278907;28;20222;-46
2022/05/22 06:44:36;;;;;;;1.87;1.30;;;;;;;14.71;67.78;97734.56;6278858;28;20234;-43
2022/05/22 06:47:57;;;;;;;2.37;1.60;;;;;;;14.89;66.00;97731.97;6281429;28;20271;-43
2022/05/22 06:51:19;;;;;;;3.13;1.60;;;;;;;15.09;63.38;97730.84;6266375;28;20218;-45
2022/05/22 06:54:24;;;;;;;2.03;1.57;;;;;;;15.30;61.68;97735.88;6290526;28;20242;-45
2022/05/22 06:57:47;;;;;;;1.67;1.43;;;;;;;15.47;60.98;97729.72;6257205;28;20616;-45
2022/05/22 07:00:57;;;;;;;3.33;1.83;;;;;;;15.67;60.80;97733.09;6292362;28;20235;-45
2022/05/22 07:04:24;;;;;;;1.90;1.50;;;;;;;15.92;60.82;97733.28;6262323;28;21080;-44
2022/05/22 07:07:57;;;;;;;3.57;1.60;;;;;;;16.11;60.00;97731.28;6287743;28;20578;-46
2022/05/22 07:11:39;;;;;;;1.92;1.45;;;;;;;16.46;57.55;97721.50;6289601;28;20434;-43
2022/05/22 07:14:55;;;;;;;4.00;1.47;;;;;;;16.45;56.78;97727.81;6278233;28;20701;-45
2022/05/22 07:18:17;;;;;;;2.20;1.50;;;;;;;16.36;58.03;97723.44;6270300;28;20222;-44
2022/05/22 07:21:30;;;;;;;1.87;1.50;;;;;;;16.50;58.44;97714.84;6245507;28;20226;-46
2022/05/22 07:24:46;;;;;;;3.07;1.47;;;;;;;16.67;58.78;97707.81;6275865;28;20238;-46
2022/05/22 07:28:02;;;;;;;3.03;1.43;;;;;;;16.79;57.94;97719.81;6249666;28;20238;-48
2022/05/22 07:31:26;;;;;;;3.43;1.50;;;;;;;16.88;56.87;97727.69;6253591;28;20322;-47
2022/05/22 07:34:47;;;;;;;2.67;1.47;;;;;;;17.57;55.07;97733.66;6281042;28;20234;-45
2022/05/22 07:38:26;;;;;;;2.73;1.20;;;;;;;17.91;53.00;97718.34;6269638;28;20716;-44
2022/05/22 07:41:54;;;;;;;1.33;1.20;;;;;;;17.99;52.41;97721.00;6262767;28;20317;-46
2022/05/22 07:45:24;;;;;;;2.70;1.40;;;;;;;18.19;52.65;97716.16;6273218;28;20305;-47
2022/05/22 07:48:53;;;;;;;2.40;1.50;;;;;;;18.01;51.14;97707.50;6255594;28;20234;-44
2022/05/22 07:52:04;;;;;;;3.27;1.63;;;;;;;17.48;52.58;97700.81;6262607;28;20230;-44
2022/05/22 07:55:48;;;;;;;3.67;1.60;;;;;;;17.34;52.94;97702.31;6240001;28;20269;-45
2022/05/22 07:59:20;;;;;;;5.47;1.93;;;;;;;17.51;52.25;97702.31;6256080;28;20210;-44
2022/05/22 08:02:46;;;;;;;3.93;2.33;;;;;;;17.62;49.70;97700.19;6253846;28;20309;-47
2022/05/22 08:05:55;;;;;;;3.17;1.63;;;;;;;17.64;51.09;97700.84;6282441;28;20739;-45
2022/05/22 08:08:57;;;;;;;2.77;1.60;;;;;;;18.05;50.45;97698.16;6258335;28;20299;-45
2022/05/22 08:12:07;;;;;;;2.83;1.47;;;;;;;18.44;48.81;97685.69;6287367;28;20218;-45
2022/05/22 08:15:12;;;;;;;2.77;1.80;;;;;;;18.60;48.74;97681.31;6253047;28;20216;-45
2022/05/22 08:18:14;;;;;;;3.63;2.30;;;;;;;18.85;47.88;97682.88;6251187;28;20212;-45
2022/05/22 08:21:16;;;;;;;1.97;1.80;;;;;;;18.90;47.45;97685.84;6262676;28;20295;-46
2022/05/22 08:24:22;;;;;;;3.53;2.00;;;;;;;19.17;46.24;97677.31;6256520;28;20222;-46
2022/05/22 08:27:31;;;;;;;3.13;1.90;;;;;;;19.36;45.94;97673.38;6259414;28;20230;-46
2022/05/22 08:30:34;;;;;;;4.73;1.60;;;;;;;19.52;46.08;97677.78;6287099;28;20315;-46
2022/05/22 08:33:36;;;;;;;4.63;2.37;;;;;;;19.57;46.58;97675.41;6246331;28;20728;-47
2022/05/22 08:36:42;;;;;;;3.83;1.60;;;;;;;19.58;46.05;97674.38;6295752;28;20240;-46
2022/05/22 08:39:44;;;;;;;3.30;1.70;;;;;;;20.39;46.26;97668.28;6280212;28;20233;-46
2022/05/22 08:42:52;;;;;;;3.90;1.70;;;;;;;21.55;42.76;97657.47;6292164;28;20238;-47
2022/05/22 08:46:05;;;;;;;5.13;2.13;;;;;;;21.93;40.68;97655.31;6260182;28;20230;-46
2022/05/22 08:49:37;;;;;;;2.50;1.87;;;;;;;21.92;38.80;97644.75;6293051;28;20237;-47
2022/05/22 08:53:08;;;;;;;3.33;1.83;;;;;;;22.02;40.36;97640.72;6284894;28;20716;-46
2022/05/22 08:59:39;;;;;;;3.17;1.53;;;;;;;23.08;39.45;97625.09;6284984;28;20325;-45
2022/05/22 10:02:36;;;;;;;2.78;1.80;;;;;;;26.40;29.91;97582.84;5197958;28;21986;-45
2022/05/22 10:05:50;;;;;;;3.00;1.40;;;;;;;26.64;30.50;97586.53;6239991;28;20408;-41
2022/05/22 10:09:29;;;;;;;1.92;1.30;;;;;;;27.04;29.72;97580.63;6249773;28;20227;-43
2022/05/22 10:12:47;;;;;;;1.38;1.25;;;;;;;26.95;29.85;97565.75;6234221;28;20265;-43
2022/05/22 10:16:07;;;;;;;5.00;1.75;;;;;;;26.99;29.58;97559.63;6241470;28;20314;-47
2022/05/22 10:19:36;;;;;;;2.85;1.58;;;;;;;26.18;31.26;97562.66;6245627;28;20228;-42
2022/05/22 10:22:56;;;;;;;2.25;1.40;;;;;;;26.86;31.86;97554.34;6244883;28;20277;-46
2022/05/22 10:26:13;;;;;;;3.17;1.45;;;;;;;27.12;30.60;97564.03;6243752;28;20235;-44
2022/05/22 10:29:46;;;;;;;2.85;1.23;;;;;;;27.20;30.06;97552.84;6234515;28;20227;-44
2022/05/22 10:33:15;;;;;;;2.20;1.13;;;;;;;27.41;27.26;97546.88;6254738;28;20242;-47
2022/05/22 10:36:48;;;;;;;2.67;1.50;;;;;;;27.54;30.31;97544.00;6253244;28;20223;-43
2022/05/22 10:39:50;;;;;;;2.25;1.50;;;;;;;27.93;29.81;97536.22;6254015;28;20453;-47
2022/05/22 10:42:56;;;;;;;1.98;1.25;;;;;;;28.11;28.31;97524.41;6215619;28;20586;-46
2022/05/22 10:45:58;;;;;;;3.08;1.48;;;;;;;28.19;27.32;97522.16;6249644;28;20246;-45
2022/05/22 10:49:01;;;;;;;1.20;1.00;;;;;;;28.45;27.24;97520.00;6249832;28;20235;-45
2022/05/22 10:52:05;;;;;;;1.90;1.50;;;;;;;28.88;26.51;97523.03;6250674;28;20599;-43
2022/05/22 10:55:26;;;;;;;1.75;1.30;;;;;;;28.83;26.77;97525.66;6251131;28;20238;-46
2022/05/22 10:58:31;;;;;;;4.10;1.40;;;;;;;28.36;27.00;97530.38;6255576;28;20597;-46
2022/05/22 11:02:00;;;;;;;2.40;1.40;;;;;;;28.07;26.60;97509.66;6221400;28;20804;-46
2022/05/22 11:05:18;;;;;;;1.83;1.02;;;;;;;28.15;27.65;97512.81;6254518;28;20227;-45
2022/05/22 11:08:34;;;;;;;2.55;1.42;;;;;;;28.43;27.60;97501.22;6255487;28;20235;-46
2022/05/22 11:11:37;;;;;;;2.03;1.30;;;;;;;28.80;26.86;97498.16;6248096;28;20762;-43
2022/05/22 11:14:41;;;;;;;2.42;1.35;;;;;;;28.49;27.28;97496.72;6253527;28;20619;-45
2022/05/22 11:17:43;;;;;;;2.22;1.25;;;;;;;28.68;27.75;97489.19;6254617;28;20718;-44
2022/05/22 11:20:54;;;;;;;2.70;1.48;;;;;;;28.82;27.36;97485.16;6256511;28;20318;-44
2022/05/22 11:24:12;;;;;;;2.25;1.33;;;;;;;28.52;27.00;97494.34;6246138;28;20219;-44
2022/05/22 11:27:33;;;;;;;3.30;1.50;;;;;;;26.99;28.45;97482.94;6247758;28;20687;-44
2022/05/22 11:31:01;;;;;;;1.77;1.50;;;;;;;28.20;29.33;97483.13;6254335;28;20825;-42
2022/05/22 11:34:30;;;;;;;2.38;1.20;;;;;;;28.46;28.01;97483.59;6243083;28;20720;-45
2022/05/22 11:37:32;;;;;;;1.33;1.20;;;;;;;29.25;27.05;97477.19;6255071;28;20743;-44
2022/05/22 11:40:59;;;;;;;1.83;1.23;;;;;;;29.46;26.15;97472.94;6254781;28;20587;-44
2022/05/22 11:44:30;;;;;;;1.90;1.33;;;;;;;29.02;27.10;97458.34;6251354;28;20227;-43
2022/05/22 11:47:51;;;;;;;2.05;1.50;;;;;;;29.22;26.58;97449.69;6245946;28;20272;-42
2022/05/22 11:50:55;;;;;;;4.78;1.50;;;;;;;28.77;26.87;97449.69;6244524;28;20235;-44
2022/05/22 11:54:12;;;;;;;1.88;1.20;;;;;;;29.46;27.20;97445.75;6246626;28;20246;-42
2022/05/22 11:57:14;;;;;;;5.07;1.98;;;;;;;29.22;26.28;97433.38;6244202;28;20274;-45
2022/05/22 12:00:45;;;;;;;2.30;1.30;;;;;;;29.44;26.15;97426.16;6242341;28;20211;-45
2022/05/22 12:03:59;;;;;;;2.15;1.58;;;;;;;29.93;26.54;97418.94;6245895;28;20246;-44
2022/05/22 12:07:19;;;;;;;1.95;1.25;;;;;;;29.32;27.15;97431.66;6255310;28;20608;-43
2022/05/22 12:10:29;;;;;;;3.75;1.65;;;;;;;29.80;26.00;97422.03;6254371;28;20267;-44
2022/05/22 12:14:00;;;;;;;2.40;1.48;;;;;;;29.90;23.47;97419.44;6237064;28;20773;-46
2022/05/22 12:17:12;;;;;;;1.40;1.23;;;;;;;29.22;26.47;97422.50;6254163;28;20223;-44
2022/05/22 12:20:30;;;;;;;1.38;1.27;;;;;;;29.02;26.87;97423.00;6254765;28;20234;-45
2022/05/22 12:23:42;;;;;;;1.98;1.42;;;;;;;28.77;26.48;97417.09;6254104;28;20261;-43
2022/05/22 12:26:45;;;;;;;2.15;1.35;;;;;;;29.49;25.59;97401.75;6253863;28;20709;-47
2022/05/22 12:30:09;;;;;;;2.10;1.50;;;;;;;29.02;26.51;97404.00;6254050;28;20231;-46
2022/05/22 12:33:13;;;;;;;2.17;1.20;;;;;;;28.75;26.96;97411.91;6252837;28;20242;-46
2022/05/22 12:36:23;;;;;;;2.15;1.17;;;;;;;28.66;27.50;97405.22;6254794;28;20219;-44
2022/05/22 12:39:37;;;;;;;2.72;1.48;;;;;;;28.35;26.94;97398.41;6253978;28;20779;-45
2022/05/22 12:42:48;;;;;;;2.72;1.20;;;;;;;28.63;27.85;97397.59;6252820;28;20314;-45
2022/05/22 12:45:57;;;;;;;3.72;1.50;;;;;;;29.63;25.65;97388.59;6236227;28;20247;-47
2022/05/22 12:49:23;;;;;;;4.40;1.45;;;;;;;29.71;27.27;97393.59;6254479;28;20273;-47
2022/05/22 12:52:27;;;;;;;1.58;1.25;;;;;;;30.30;25.52;97391.06;6250163;28;20242;-43
2022/05/22 12:55:34;;;;;;;2.15;1.30;;;;;;;30.40;25.03;97383.84;6250351;28;20314;-44
2022/05/22 12:58:41;;;;;;;2.05;1.30;;;;;;;30.05;25.39;97378.00;6242616;28;20610;-46
2022/05/22 13:01:57;;;;;;;1.88;1.30;;;;;;;30.07;25.76;97381.28;6249825;28;20236;-44
2022/05/22 13:05:02;;;;;;;1.65;1.23;;;;;;;29.81;26.06;97385.56;6245100;28;20234;-47
2022/05/22 13:08:18;;;;;;;2.92;1.38;;;;;;;30.48;24.82;97371.66;6250629;28;20349;-46
2022/05/22 13:11:29;;;;;;;2.08;1.30;;;;;;;30.42;25.21;97375.41;6252559;28;20235;-48
2022/05/22 13:14:55;;;;;;;1.77;1.20;;;;;;;30.13;26.02;97365.84;6252663;28;20312;-44
2022/05/22 13:18:11;;;;;;;1.88;1.40;;;;;;;29.22;26.16;97363.53;6250771;28;20234;-46
2022/05/22 13:21:29;;;;;;;2.72;1.52;;;;;;;28.88;26.49;97357.28;6252272;28;20262;-46
2022/05/22 13:24:31;;;;;;;2.38;1.67;;;;;;;28.69;27.18;97347.72;6252149;28;20695;-45
2022/05/22 13:27:40;;;;;;;3.25;1.42;;;;;;;29.13;26.52;97356.06;6251718;28;20266;-46
2022/05/22 13:30:42;;;;;;;3.15;1.42;;;;;;;29.16;26.58;97345.47;6253354;28;20262;-46
2022/05/22 13:33:49;;;;;;;3.08;1.52;;;;;;;30.00;25.99;97343.38;6252915;28;20318;-46
2022/05/22 13:36:54;;;;;;;2.05;1.35;;;;;;;29.89;25.37;97340.75;6251769;28;20440;-44
2022/05/22 13:40:06;;;;;;;1.50;1.25;;;;;;;30.32;25.97;97345.34;6252681;28;20247;-45
2022/05/22 13:43:29;;;;;;;1.00;0.98;;;;;;;30.46;24.18;97331.03;6251704;28;20231;-42
2022/05/22 13:46:54;;;;;;;2.10;1.35;;;;;;;31.05;24.25;97332.91;6237603;28;20234;-43
2022/05/22 13:53:45;;;;;;;3.25;1.40;;;;;;;32.38;22.45;97321.53;6245159;28;20239;-43
2022/05/22 13:57:00;;;;;;;1.65;1.17;;;;;;;31.69;23.22;97316.41;6255843;28;20345;-44
2022/05/22 14:00:08;;;;;;;1.75;1.25;;;;;;;32.38;21.89;97310.59;6248214;28;20619;-44
2022/05/22 14:03:21;;;;;;;1.83;1.23;;;;;;;33.80;19.98;97297.59;6257459;28;20296;-44
2022/05/22 14:06:29;;;;;;;2.25;1.40;;;;;;;34.17;20.17;97302.56;6253741;28;20234;-42
2022/05/22 14:09:35;;;;;;;2.95;1.45;;;;;;;35.53;18.33;97308.03;6256856;28;20321;-46
2022/05/22 14:12:42;;;;;;;1.90;1.50;;;;;;;35.98;18.11;97300.34;6256983;28;20238;-43
2022/05/22 14:16:06;;;;;;;2.00;1.10;;;;;;;37.71;16.34;97296.38;6255003;28;20235;-44
2022/05/22 14:19:12;;;;;;;1.95;1.13;;;;;;;38.23;16.30;97296.91;6257030;28;20326;-46
2022/05/22 14:22:19;;;;;;;1.48;1.10;;;;;;;39.36;15.60;97282.75;6256079;28;20597;-44
2022/05/22 14:25:25;;;;;;;4.80;1.63;;;;;;;39.13;15.65;97287.53;6258286;28;20607;-45
2022/05/22 14:28:35;;;;;;;1.77;1.20;;;;;;;37.38;16.95;97287.34;6253817;28;20706;-46
2022/05/22 14:31:46;;;;;;;2.92;1.30;;;;;;;36.85;16.58;97295.19;6249775;28;20234;-44
2022/05/22 14:34:48;;;;;;;2.17;1.10;;;;;;;36.51;17.20;97292.72;6254036;28;20235;-47
2022/05/22 14:37:51;;;;;;;2.72;1.27;;;;;;;35.98;17.48;97283.84;6256359;28;20234;-45
2022/05/22 14:40:57;;;;;;;2.72;1.48;;;;;;;37.10;17.59;97289.25;6253972;28;20238;-44
2022/05/22 14:44:06;;;;;;;2.42;1.42;;;;;;;39.18;16.02;97284.63;6252577;28;20239;-45
2022/05/22 14:47:14;;;;;;;1.75;1.00;;;;;;;38.95;15.08;97283.81;6250810;28;20690;-47
2022/05/22 14:50:18;;;;;;;3.05;1.20;;;;;;;35.50;17.98;97295.72;6255940;28;20269;-42
2022/05/22 14:53:35;;;;;;;2.03;1.23;;;;;;;34.47;19.86;97285.13;6229600;28;20238;-44
2022/05/22 14:56:44;;;;;;;2.50;1.70;;;;;;;33.93;20.28;97290.69;6237809;28;20230;-43
2022/05/22 14:59:52;;;;;;;3.00;1.30;;;;;;;33.95;18.41;97288.47;6253733;28;20226;-46
2022/05/22 15:03:15;;;;;;;1.70;1.40;;;;;;;35.40;19.34;97295.81;6262179;28;20325;-44
2022/05/22 15:06:24;;;;;;;2.03;1.23;;;;;;;35.36;17.89;97292.00;6256492;28;20222;-46
2022/05/22 15:09:37;;;;;;;2.40;1.35;;;;;;;36.19;17.35;97288.75;6279356;28;20321;-45
2022/05/22 15:12:39;;;;;;;1.77;1.20;;;;;;;36.96;16.23;97291.97;6276535;28;20229;-44
2022/05/22 15:15:42;;;;;;;1.85;1.23;;;;;;;36.26;16.91;97291.16;6277616;28;20225;-47
2022/05/22 15:25:49;;;;;;;2.53;1.52;;;;;;;36.02;17.24;97280.22;6280549;28;20768;-44
2022/05/22 15:28:51;;;;;;;4.00;1.60;;;;;;;36.93;18.39;97275.25;6280429;28;20232;-43
2022/05/22 15:31:54;;;;;;;3.35;1.70;;;;;;;38.19;15.85;97276.59;6280961;28;20379;-45
2022/05/22 15:34:59;;;;;;;1.38;1.17;;;;;;;38.15;16.08;97273.63;6280170;28;20265;-44
2022/05/22 15:38:02;;;;;;;2.58;1.20;;;;;;;36.53;17.15;97280.31;6284273;28;20233;-44
2022/05/22 15:41:21;;;;;;;1.85;1.25;;;;;;;33.46;19.32;97277.44;6280258;28;20783;-43
2022/05/22 15:44:33;;;;;;;2.90;1.27;;;;;;;31.53;23.26;97277.31;6279754;28;20235;-46
2022/05/22 15:47:35;;;;;;;1.50;1.23;;;;;;;32.13;21.20;97270.41;6242724;28;20362;-44
2022/05/22 15:50:47;;;;;;;1.90;1.30;;;;;;;32.16;22.13;97265.22;6277243;28;20239;-46
2022/05/22 15:53:50;;;;;;;3.20;1.40;;;;;;;34.10;19.60;97265.66;6263087;28;20313;-46
2022/05/22 15:56:53;;;;;;;2.38;1.27;;;;;;;34.49;19.42;97268.41;6280860;28;20744;-43
2022/05/22 15:59:55;;;;;;;2.65;1.42;;;;;;;33.98;18.60;97263.25;6252875;28;20235;-44
2022/05/22 16:03:00;;;;;;;2.33;1.23;;;;;;;33.63;19.69;97262.34;6265253;28;20333;-44
2022/05/22 16:06:02;;;;;;;2.15;1.10;;;;;;;34.58;18.03;97255.72;6278989;28;20226;-43
2022/05/22 16:09:04;;;;;;;2.83;1.40;;;;;;;34.93;18.03;97262.84;6279586;28;20731;-45
2022/05/22 16:12:08;;;;;;;3.25;1.42;;;;;;;32.56;19.62;97258.97;6260923;28;20317;-43
2022/05/22 16:15:13;;;;;;;3.80;1.45;;;;;;;33.57;19.04;97262.63;6279258;28;20234;-43